createdAt,value
2017-12-19T00:02:00.444Z,100545.30
2017-12-19T00:04:28.120Z,100542.09
2017-12-19T00:06:55.850Z,100545.81
2017-12-19T00:09:23.459Z,100545.31
2017-12-19T00:11:51.111Z,100548.17
2017-12-19T00:14:18.763Z,100550.83
2017-12-19T00:16:46.415Z,100548.53
2017-12-19T00:19:14.011Z,100558.09
2017-12-19T00:21:41.743Z,100554.11
2017-12-19T00:24:09.359Z,100565.77
2017-12-19T00:26:36.971Z,100568.39
2017-12-19T00:29:04.659Z,100568.12
2017-12-19T00:31:32.259Z,100575.72
2017-12-19T00:33:59.920Z,100569.81
2017-12-19T00:36:27.636Z,100574.56
2017-12-19T00:38:55.303Z,100583.35
2017-12-19T00:41:22.959Z,100589.34
2017-12-19T00:43:50.632Z,100586.66
2017-12-19T00:46:18.238Z,100584.91
2017-12-19T00:48:45.912Z,100588.51
2017-12-19T00:51:13.574Z,100596.70
2017-12-19T00:53:41.246Z,100589.14
2017-12-19T00:56:09.412Z,100584.43
2017-12-19T00:58:37.151Z,100580.02
2017-12-19T01:01:04.834Z,100587.23
2017-12-19T01:03:32.440Z,100590.21
2017-12-19T01:06:00.159Z,100588.88
2017-12-19T01:08:27.847Z,100603.84
2017-12-19T01:10:55.451Z,100596.14
2017-12-19T01:13:23.172Z,100594.38
2017-12-19T01:15:50.786Z,100595.52
2017-12-19T01:18:18.394Z,100596.28
2017-12-19T01:20:46.055Z,100597.36
2017-12-19T01:23:13.654Z,100594.42
2017-12-19T01:25:41.259Z,100596.45
2017-12-19T01:28:08.934Z,100600.28
2017-12-19T01:30:36.535Z,100603.45
2017-12-19T01:33:04.143Z,100603.98
2017-12-19T01:35:31.795Z,100601.23
2017-12-19T01:37:59.394Z,100606.59
2017-12-19T01:40:26.998Z,100605.98
2017-12-19T01:42:54.719Z,100599.78
2017-12-19T01:45:22.314Z,100600.58
2017-12-19T01:47:49.979Z,100604.13
2017-12-19T01:50:17.629Z,100609.48
2017-12-19T01:52:45.239Z,100602.01
2017-12-19T01:55:12.843Z,100613.27
2017-12-19T01:57:40.561Z,100613.16
2017-12-19T02:00:08.344Z,100612.36
2017-12-19T02:02:35.953Z,100615.12
2017-12-19T02:05:03.618Z,100612.09
2017-12-19T02:07:31.215Z,100612.75
2017-12-19T02:09:58.814Z,100617.20
2017-12-19T02:12:26.471Z,100619.25
2017-12-19T02:14:54.079Z,100617.44
2017-12-19T02:17:21.695Z,100621.80
2017-12-19T02:19:49.395Z,100615.78
2017-12-19T02:22:17.014Z,100621.18
2017-12-19T02:24:44.635Z,100621.38
2017-12-19T02:27:12.343Z,100624.58
2017-12-19T02:29:39.947Z,100618.47
2017-12-19T02:32:07.628Z,100625.73
2017-12-19T02:34:35.375Z,100625.16
2017-12-19T02:37:03.014Z,100621.84
2017-12-19T02:39:30.696Z,100630.03
2017-12-19T02:41:58.374Z,100630.03
2017-12-19T02:44:25.996Z,100632.50
2017-12-19T02:46:53.699Z,100638.41
2017-12-19T02:49:21.383Z,100639.74
2017-12-19T02:51:49.159Z,100635.86
2017-12-19T02:54:16.853Z,100641.94
2017-12-19T02:56:44.618Z,100640.66
2017-12-19T02:59:12.283Z,100642.64
2017-12-19T03:01:39.920Z,100640.69
2017-12-19T03:04:07.587Z,100645.57
2017-12-19T03:06:35.319Z,100645.19
2017-12-19T03:09:03.092Z,100645.56
2017-12-19T03:11:30.781Z,100645.23
2017-12-19T03:13:58.403Z,100648.70
2017-12-19T03:16:26.115Z,100656.60
2017-12-19T03:18:53.911Z,100660.25
2017-12-19T03:21:21.543Z,100665.08
2017-12-19T03:23:49.167Z,100663.58
2017-12-19T03:26:16.858Z,100661.95
2017-12-19T03:28:44.482Z,100666.93
2017-12-19T03:31:12.103Z,100673.28
2017-12-19T03:33:39.793Z,100673.89
2017-12-19T03:36:07.479Z,100678.11
2017-12-19T03:38:35.187Z,100677.97
2017-12-19T03:41:02.863Z,100689.05
2017-12-19T03:43:30.558Z,100683.64
2017-12-19T03:45:58.191Z,100686.15
2017-12-19T03:48:25.871Z,100686.95
2017-12-19T03:50:53.571Z,100695.23
2017-12-19T03:53:21.258Z,100700.31
2017-12-19T03:55:49.003Z,100696.66
2017-12-19T03:58:16.630Z,100696.28
2017-12-19T04:00:44.520Z,100704.89
2017-12-19T04:03:12.191Z,100707.69
2017-12-19T04:05:39.939Z,100704.38
2017-12-19T04:08:07.564Z,100707.55
2017-12-19T04:10:35.246Z,100714.23
2017-12-19T04:13:02.933Z,100709.40
2017-12-19T04:15:30.628Z,100708.97
2017-12-19T04:17:58.306Z,100717.30
2017-12-19T04:20:25.935Z,100711.85
2017-12-19T04:22:53.608Z,100718.91
2017-12-19T04:25:21.286Z,100722.79
2017-12-19T04:27:48.973Z,100724.94
2017-12-19T04:30:16.594Z,100725.16
2017-12-19T04:32:44.271Z,100727.06
2017-12-19T04:35:11.902Z,100728.87
2017-12-19T04:37:39.580Z,100730.33
2017-12-19T04:40:07.270Z,100739.38
2017-12-19T04:42:34.904Z,100741.41
2017-12-19T04:45:02.594Z,100743.30
2017-12-19T04:47:30.263Z,100752.27
2017-12-19T04:49:57.874Z,100749.14
2017-12-19T04:52:25.551Z,100747.62
2017-12-19T04:54:53.234Z,100751.84
2017-12-19T04:57:20.851Z,100753.55
2017-12-19T04:59:48.483Z,100754.77
2017-12-19T05:02:16.150Z,100760.41
2017-12-19T05:04:43.773Z,100753.16
2017-12-19T05:07:11.411Z,100754.67
2017-12-19T05:09:39.135Z,100760.41
2017-12-19T05:12:06.819Z,100763.45
2017-12-19T05:14:34.459Z,100767.52
2017-12-19T05:17:02.118Z,100769.60
2017-12-19T05:19:29.730Z,100774.28
2017-12-19T05:21:57.348Z,100773.11
2017-12-19T05:24:25.027Z,100777.36
2017-12-19T05:26:52.643Z,100783.14
2017-12-19T05:29:20.324Z,100791.34
2017-12-19T05:31:48.056Z,100791.14
2017-12-19T05:34:15.679Z,100783.14
2017-12-19T05:36:43.287Z,100788.11
2017-12-19T05:39:11.048Z,100790.95
2017-12-19T05:41:38.664Z,100797.97
2017-12-19T05:44:06.349Z,100800.38
2017-12-19T05:46:34.092Z,100799.81
2017-12-19T05:49:01.715Z,100800.42
2017-12-19T05:51:29.347Z,100805.35
2017-12-19T05:53:57.020Z,100802.98
2017-12-19T05:56:24.695Z,100802.89
2017-12-19T05:58:52.306Z,100805.50
2017-12-19T06:01:20.011Z,100806.91
2017-12-19T06:03:47.693Z,100809.19
2017-12-19T06:06:15.312Z,100810.37
2017-12-19T06:08:42.985Z,100813.02
2017-12-19T06:11:10.608Z,100811.32
2017-12-19T06:13:38.231Z,100816.58
2017-12-19T06:16:05.909Z,100816.95
2017-12-19T06:18:33.584Z,100822.37
2017-12-19T06:21:01.271Z,100823.22
2017-12-19T06:23:28.968Z,100829.25
2017-12-19T06:25:56.599Z,100830.52
2017-12-19T06:28:24.220Z,100833.84
2017-12-19T06:30:51.943Z,100831.95
2017-12-19T06:33:19.623Z,100835.55
2017-12-19T06:35:47.312Z,100840.77
2017-12-19T06:38:14.986Z,100838.20
2017-12-19T06:40:42.663Z,100842.33
2017-12-19T06:43:10.275Z,100845.89
2017-12-19T06:45:38.008Z,100845.47
2017-12-19T06:48:05.629Z,100849.39
2017-12-19T06:50:33.307Z,100853.99
2017-12-19T06:53:00.980Z,100859.86
2017-12-19T06:55:28.612Z,100858.29
2017-12-19T06:57:56.228Z,100866.25
2017-12-19T07:00:23.940Z,100863.59
2017-12-19T07:02:51.623Z,100868.70
2017-12-19T07:05:19.248Z,100872.64
2017-12-19T07:07:46.926Z,100873.67
2017-12-19T07:10:14.544Z,100874.14
2017-12-19T07:12:42.170Z,100880.53
2017-12-19T07:15:09.904Z,100877.95
2017-12-19T07:17:37.528Z,100882.97
2017-12-19T07:20:05.202Z,100881.36
2017-12-19T07:22:32.879Z,100886.78
2017-12-19T07:25:00.524Z,100888.28
2017-12-19T07:27:28.150Z,100893.36
2017-12-19T07:29:55.866Z,100899.23
2017-12-19T07:32:23.479Z,100898.05
2017-12-19T07:34:51.155Z,100899.80
2017-12-19T07:37:18.827Z,100904.12
2017-12-19T07:39:46.468Z,100909.05
2017-12-19T07:42:14.092Z,100914.89
2017-12-19T07:44:41.783Z,100903.37
2017-12-19T07:47:09.446Z,100910.16
2017-12-19T07:49:37.058Z,100911.44
2017-12-19T07:52:04.727Z,100913.73
2017-12-19T07:54:32.331Z,100915.80
2017-12-19T07:56:59.967Z,100914.41
2017-12-19T07:59:27.627Z,100922.14
2017-12-19T08:01:55.235Z,100926.39
2017-12-19T08:04:22.831Z,100929.20
2017-12-19T08:06:50.483Z,100934.55
2017-12-19T08:09:18.102Z,100932.63
2017-12-19T08:11:45.705Z,100938.81
2017-12-19T08:14:13.374Z,100934.14
2017-12-19T08:16:41.057Z,100932.53
2017-12-19T08:19:08.666Z,100935.74
2017-12-19T08:21:36.318Z,100940.03
2017-12-19T08:24:03.919Z,100934.58
2017-12-19T08:26:31.574Z,100936.57
2017-12-19T08:28:59.235Z,100945.74
2017-12-19T08:31:26.892Z,100947.78
2017-12-19T08:33:54.486Z,100947.94
2017-12-19T08:36:22.150Z,100952.38
2017-12-19T08:38:49.812Z,100955.09
2017-12-19T08:41:17.415Z,100955.73
2017-12-19T08:43:45.096Z,100952.12
2017-12-19T08:46:12.751Z,100954.61
2017-12-19T08:48:40.361Z,100959.65
2017-12-19T08:51:08.020Z,100957.39
2017-12-19T08:53:35.686Z,100950.11
2017-12-19T08:56:03.331Z,100949.37
2017-12-19T08:58:31.055Z,100951.02
2017-12-19T09:00:58.655Z,100948.97
2017-12-19T09:03:26.258Z,100951.30
2017-12-19T09:05:53.930Z,100950.09
2017-12-19T09:08:21.531Z,100954.70
2017-12-19T09:10:49.127Z,100963.55
2017-12-19T09:13:16.809Z,100954.92
2017-12-19T09:15:44.447Z,100955.41
2017-12-19T09:18:12.107Z,100958.35
2017-12-19T09:20:39.821Z,100962.40
2017-12-19T09:23:07.423Z,100966.33
2017-12-19T09:25:35.034Z,100969.84
2017-12-19T09:28:02.691Z,100960.61
2017-12-19T09:30:30.347Z,100972.63
2017-12-19T09:32:57.947Z,100970.11
2017-12-19T09:35:25.599Z,100969.06
2017-12-19T09:37:53.194Z,100963.33
2017-12-19T09:40:20.855Z,100974.81
2017-12-19T09:42:48.503Z,100972.86
2017-12-19T09:45:16.102Z,100969.69
2017-12-19T09:47:43.703Z,100967.50
2017-12-19T09:50:11.393Z,100958.44
2017-12-19T09:52:38.991Z,100960.94
2017-12-19T09:55:06.590Z,100961.11
2017-12-19T09:57:34.244Z,100957.82
2017-12-19T10:00:01.851Z,100959.11
2017-12-19T10:02:29.523Z,100960.91
2017-12-19T10:04:57.234Z,100960.47
2017-12-19T10:07:24.843Z,100966.64
2017-12-19T10:09:52.443Z,100964.30
2017-12-19T10:12:20.162Z,100963.23
2017-12-19T10:14:47.767Z,100963.41
2017-12-19T10:17:15.434Z,100969.28
2017-12-19T10:19:43.146Z,100975.80
2017-12-19T10:22:10.778Z,100981.20
2017-12-19T10:24:38.410Z,100975.20
2017-12-19T10:27:06.199Z,100982.33
2017-12-19T10:29:33.831Z,100975.41
2017-12-19T10:32:01.479Z,100975.58
2017-12-19T10:34:29.196Z,100976.00
2017-12-19T10:36:56.807Z,100977.34
2017-12-19T10:39:24.407Z,100977.98
2017-12-19T10:41:52.083Z,100983.48
2017-12-19T10:44:19.779Z,100978.06
2017-12-19T10:46:47.387Z,100983.01
2017-12-19T10:49:15.095Z,100977.16
2017-12-19T10:51:42.694Z,100975.00
2017-12-19T10:54:10.299Z,100977.73
2017-12-19T10:56:37.962Z,100976.89
2017-12-19T10:59:05.618Z,100977.48
2017-12-19T11:01:33.290Z,100978.51
2017-12-19T11:04:00.947Z,100987.70
2017-12-19T11:06:28.555Z,100980.47
2017-12-19T11:08:56.155Z,100983.83
2017-12-19T11:11:23.866Z,100981.13
2017-12-19T11:13:51.470Z,100975.55
2017-12-19T11:16:19.127Z,100980.70
2017-12-19T11:18:46.839Z,100971.51
2017-12-19T11:21:14.438Z,100978.30
2017-12-19T11:23:42.167Z,100978.52
2017-12-19T11:26:09.923Z,100979.63
2017-12-19T11:28:37.691Z,100980.13
2017-12-19T11:31:05.355Z,100982.65
2017-12-19T11:33:33.127Z,100974.67
2017-12-19T11:36:00.907Z,100979.20
2017-12-19T11:38:28.603Z,100982.98
2017-12-19T11:40:57.227Z,100982.73
2017-12-19T11:43:24.832Z,100981.58
2017-12-19T11:45:52.439Z,100982.89
2017-12-19T11:48:20.107Z,100985.50
2017-12-19T11:50:47.706Z,100985.13
2017-12-19T11:53:15.319Z,100982.25
2017-12-19T11:55:42.975Z,100988.80
2017-12-19T11:58:10.582Z,100990.50
2017-12-19T12:00:38.194Z,100990.69
2017-12-19T12:03:05.851Z,100981.84
2017-12-19T12:05:33.462Z,100989.06
2017-12-19T12:08:01.120Z,100991.73
2017-12-19T12:10:28.766Z,100987.42
2017-12-19T12:12:56.371Z,100985.87
2017-12-19T12:15:23.976Z,100983.80
2017-12-19T12:17:51.640Z,100983.74
2017-12-19T12:20:19.311Z,100980.77
2017-12-19T12:22:46.983Z,100987.27
2017-12-19T12:25:14.715Z,100987.90
2017-12-19T12:27:42.322Z,100985.85
2017-12-19T12:30:09.940Z,100986.37
2017-12-19T12:32:37.627Z,100982.99
2017-12-19T12:35:05.240Z,100989.97
2017-12-19T12:37:32.842Z,100986.63
2017-12-19T12:40:00.589Z,100994.93
2017-12-19T12:42:28.287Z,101002.54
2017-12-19T12:44:55.887Z,100997.22
2017-12-19T12:47:23.566Z,100998.19
2017-12-19T12:49:51.231Z,101004.31
2017-12-19T12:52:18.964Z,101013.13
2017-12-19T12:54:46.685Z,101017.73
2017-12-19T12:57:14.387Z,101014.78
2017-12-19T12:59:42.076Z,101013.73
2017-12-19T13:02:09.783Z,101013.92
2017-12-19T13:04:37.407Z,101019.29
2017-12-19T13:07:05.072Z,101027.07
2017-12-19T13:09:32.758Z,101019.48
2017-12-19T13:12:00.387Z,101026.09
2017-12-19T13:14:27.994Z,101020.64
2017-12-19T13:16:55.651Z,101033.17
2017-12-19T13:19:23.255Z,101038.09
2017-12-19T13:21:50.864Z,101034.27
2017-12-19T13:24:18.518Z,101036.49
2017-12-19T13:26:46.119Z,101033.08
2017-12-19T13:29:13.783Z,101039.11
2017-12-19T13:31:41.458Z,101038.05
2017-12-19T13:34:09.123Z,101039.04
2017-12-19T13:36:36.779Z,101039.03
2017-12-19T13:39:04.582Z,101044.63
2017-12-19T13:41:32.184Z,101045.80
2017-12-19T13:43:59.794Z,101041.08
2017-12-19T13:46:27.448Z,101044.34
2017-12-19T13:48:55.056Z,101043.50
2017-12-19T13:51:22.719Z,101048.90
2017-12-19T13:53:50.387Z,101049.30
2017-12-19T13:56:18.051Z,101052.66
2017-12-19T13:58:45.697Z,101051.63
2017-12-19T14:01:13.447Z,101051.11
2017-12-19T14:03:41.055Z,101054.69
2017-12-19T14:06:08.751Z,101062.42
2017-12-19T14:08:36.411Z,101057.70
2017-12-19T14:11:04.014Z,101058.22
2017-12-19T14:13:31.611Z,101065.39
2017-12-19T14:15:59.266Z,101064.59
2017-12-19T14:18:26.927Z,101063.00
2017-12-19T14:20:54.583Z,101066.41
2017-12-19T14:23:22.295Z,101068.93
2017-12-19T14:25:49.894Z,101065.48
2017-12-19T14:28:17.491Z,101069.45
2017-12-19T14:30:45.151Z,101077.89
2017-12-19T14:33:12.784Z,101077.66
2017-12-19T14:35:40.387Z,101084.06
2017-12-19T14:38:08.099Z,101084.83
2017-12-19T14:40:35.755Z,101081.59
2017-12-19T14:43:03.465Z,101089.91
2017-12-19T14:45:31.142Z,101090.14
2017-12-19T14:47:58.743Z,101087.73
2017-12-19T14:50:26.403Z,101088.95
2017-12-19T14:52:54.147Z,101089.38
2017-12-19T14:55:21.754Z,101092.42
2017-12-19T14:57:49.358Z,101096.17
2017-12-19T15:00:17.047Z,101089.92
2017-12-19T15:02:44.712Z,101096.45
2017-12-19T15:05:12.416Z,101100.05
2017-12-19T15:07:40.132Z,101097.36
2017-12-19T15:10:07.735Z,101103.52
2017-12-19T15:12:35.396Z,101096.81
2017-12-19T15:15:03.080Z,101105.23
2017-12-19T15:17:30.745Z,101092.95
2017-12-19T15:19:58.413Z,101102.50
2017-12-19T15:22:26.090Z,101100.14
2017-12-19T15:24:53.700Z,101100.01
2017-12-19T15:27:21.364Z,101099.38
2017-12-19T15:29:49.024Z,101104.95
2017-12-19T15:32:16.627Z,101108.16
2017-12-19T15:34:44.227Z,101105.98
2017-12-19T15:37:11.888Z,101107.44
2017-12-19T15:39:39.544Z,101106.35
2017-12-19T15:42:07.154Z,101113.41
2017-12-19T15:44:34.923Z,101114.28
2017-12-19T15:47:02.544Z,101113.47
2017-12-19T15:49:30.155Z,101113.27
2017-12-19T15:51:57.827Z,101117.50
2017-12-19T15:54:25.427Z,101118.06
2017-12-19T15:56:53.070Z,101122.03
2017-12-19T15:59:20.771Z,101124.42
2017-12-19T16:01:48.374Z,101121.95
2017-12-19T16:04:15.980Z,101130.72
2017-12-19T16:06:43.636Z,101126.83
2017-12-19T16:09:11.237Z,101134.14
2017-12-19T16:11:38.952Z,101126.77
2017-12-19T16:14:06.604Z,101126.94
2017-12-19T16:16:34.263Z,101130.32
2017-12-19T16:19:01.995Z,101127.48
2017-12-19T16:21:29.707Z,101134.73
2017-12-19T16:23:57.310Z,101126.11
2017-12-19T16:26:24.906Z,101130.66
2017-12-19T16:28:52.586Z,101136.39
2017-12-19T16:31:20.247Z,101137.06
2017-12-19T16:33:47.854Z,101142.28
2017-12-19T16:36:15.571Z,101142.08
2017-12-19T16:38:43.178Z,101146.83
2017-12-19T16:41:10.785Z,101145.13
2017-12-19T16:43:38.507Z,101153.77
2017-12-19T16:46:06.168Z,101153.25
2017-12-19T16:48:33.834Z,101152.14
2017-12-19T16:51:01.542Z,101159.77
2017-12-19T16:53:29.144Z,101158.01
2017-12-19T16:55:56.743Z,101157.49
2017-12-19T16:58:24.485Z,101160.58
2017-12-19T17:00:52.151Z,101156.86
2017-12-19T17:03:19.819Z,101165.03
2017-12-19T17:05:47.539Z,101165.89
2017-12-19T17:08:15.146Z,101163.46
2017-12-19T17:10:42.750Z,101167.52
2017-12-19T17:13:10.420Z,101166.27
2017-12-19T17:15:38.101Z,101169.28
2017-12-19T17:18:05.710Z,101172.48
2017-12-19T17:20:33.362Z,101171.63
2017-12-19T17:23:01.028Z,101172.19
2017-12-19T17:25:28.691Z,101172.05
2017-12-19T17:27:56.351Z,101168.42
2017-12-19T17:30:23.959Z,101180.53
2017-12-19T17:32:51.619Z,101176.94
2017-12-19T17:35:19.275Z,101169.32
2017-12-19T17:37:47.083Z,101171.42
2017-12-19T17:40:14.691Z,101175.73
2017-12-19T17:42:42.354Z,101179.63
2017-12-19T17:45:09.954Z,101186.22
2017-12-19T17:47:37.591Z,101184.64
2017-12-19T17:50:05.311Z,101180.61
2017-12-19T17:52:32.975Z,101182.80
2017-12-19T17:55:00.583Z,101181.90
2017-12-19T17:57:28.248Z,101186.31
2017-12-19T17:59:55.914Z,101188.53
2017-12-19T18:02:23.583Z,101189.09
2017-12-19T18:04:51.246Z,101193.76
2017-12-19T18:07:18.860Z,101190.04
2017-12-19T18:09:46.467Z,101193.94
2017-12-19T18:12:14.128Z,101190.85
2017-12-19T18:14:41.794Z,101196.07
2017-12-19T18:17:09.460Z,101189.91
2017-12-19T18:19:37.170Z,101197.70
2017-12-19T18:22:04.780Z,101197.11
2017-12-19T18:24:32.455Z,101201.56
2017-12-19T18:27:00.110Z,101197.41
2017-12-19T18:29:27.770Z,101198.30
2017-12-19T18:31:55.376Z,101202.15
2017-12-19T18:34:23.026Z,101209.30
2017-12-19T18:36:50.702Z,101211.57
2017-12-19T18:39:18.316Z,101205.07
2017-12-19T18:41:46.047Z,101202.70
2017-12-19T18:44:13.651Z,101206.00
2017-12-19T18:46:41.259Z,101203.91
2017-12-19T18:49:08.917Z,101208.17
2017-12-19T18:51:36.577Z,101207.79
2017-12-19T18:54:04.239Z,101210.05
2017-12-19T18:56:31.967Z,101214.43
2017-12-19T18:58:59.569Z,101203.23
2017-12-19T19:01:27.248Z,101213.09
2017-12-19T19:03:54.930Z,101216.73
2017-12-19T19:06:22.538Z,101218.06
2017-12-19T19:08:50.199Z,101219.22
2017-12-19T19:11:17.911Z,101216.83
2017-12-19T19:13:45.585Z,101216.97
2017-12-19T19:16:13.351Z,101222.23
2017-12-19T19:18:41.107Z,101225.31
2017-12-19T19:21:08.723Z,101226.34
2017-12-19T19:23:36.398Z,101226.98
2017-12-19T19:26:04.054Z,101229.84
2017-12-19T19:28:31.719Z,101226.59
2017-12-19T19:30:59.315Z,101234.77
2017-12-19T19:33:26.973Z,101237.81
2017-12-19T19:35:54.591Z,101229.42
2017-12-19T19:38:22.203Z,101230.06
2017-12-19T19:40:49.960Z,101235.94
2017-12-19T19:43:17.565Z,101231.48
2017-12-19T19:45:45.471Z,101238.59
2017-12-19T19:48:13.137Z,101239.36
2017-12-19T19:50:40.743Z,101234.00
2017-12-19T19:53:08.407Z,101237.47
2017-12-19T19:55:36.125Z,101235.08
2017-12-19T19:58:03.743Z,101240.13
2017-12-19T20:00:31.348Z,101243.68
2017-12-19T20:02:59.004Z,101243.59
2017-12-19T20:05:26.668Z,101242.44
2017-12-19T20:07:54.267Z,101250.83
2017-12-19T20:10:21.931Z,101246.04
2017-12-19T20:12:49.551Z,101251.86
2017-12-19T20:15:17.159Z,101251.44
2017-12-19T20:17:44.819Z,101260.98
2017-12-19T20:20:12.480Z,101256.75
2017-12-19T20:22:40.090Z,101261.92
2017-12-19T20:25:07.799Z,101254.34
2017-12-19T20:27:35.409Z,101257.80
2017-12-19T20:30:03.014Z,101251.39
2017-12-19T20:32:30.676Z,101260.98
2017-12-19T20:34:58.340Z,101266.03
2017-12-19T20:37:25.947Z,101269.62
2017-12-19T20:39:53.665Z,101272.71
2017-12-19T20:42:21.271Z,101279.05
2017-12-19T20:44:48.882Z,101276.34
2017-12-19T20:47:16.554Z,101281.97
2017-12-19T20:49:44.165Z,101283.63
2017-12-19T20:52:11.836Z,101290.66
2017-12-19T20:54:39.519Z,101292.02
2017-12-19T20:57:07.123Z,101287.74
2017-12-19T20:59:34.734Z,101290.27
2017-12-19T21:02:02.395Z,101294.93
2017-12-19T21:04:30.011Z,101299.47
2017-12-19T21:06:57.619Z,101296.60
2017-12-19T21:09:25.279Z,101305.16
2017-12-19T21:11:52.890Z,101303.80
2017-12-19T21:14:20.500Z,101304.31
2017-12-19T21:16:48.214Z,101307.73
2017-12-19T21:19:15.820Z,101309.10
2017-12-19T21:21:43.433Z,101303.80
2017-12-19T21:24:11.091Z,101300.23
2017-12-19T21:26:38.767Z,101312.49
2017-12-19T21:29:06.432Z,101310.17
2017-12-19T21:31:34.103Z,101315.52
2017-12-19T21:34:01.706Z,101315.70
2017-12-19T21:36:29.373Z,101315.78
2017-12-19T21:38:57.033Z,101317.66
2017-12-19T21:41:24.700Z,101316.04
2017-12-19T21:43:52.379Z,101312.61
2017-12-19T21:46:20.039Z,101318.13
2017-12-19T21:48:47.651Z,101320.82
2017-12-19T21:51:15.365Z,101331.02
2017-12-19T21:53:43.083Z,101335.30
2017-12-19T21:56:10.689Z,101338.73
2017-12-19T21:58:38.351Z,101333.07
2017-12-19T22:01:06.010Z,101335.30
2017-12-19T22:03:33.692Z,101340.19
2017-12-19T22:06:01.359Z,101339.31
2017-12-19T22:08:29.027Z,101337.13
2017-12-19T22:10:56.638Z,101340.47
2017-12-19T22:13:24.239Z,101339.91
2017-12-19T22:15:51.907Z,101344.51
2017-12-19T22:18:19.511Z,101349.03
2017-12-19T22:20:47.112Z,101337.70
2017-12-19T22:23:14.827Z,101339.31
2017-12-19T22:25:42.497Z,101338.25
2017-12-19T22:28:10.090Z,101343.50
2017-12-19T22:30:37.747Z,101349.91
2017-12-19T22:33:05.359Z,101343.45
2017-12-19T22:35:32.970Z,101338.27
2017-12-19T22:38:00.744Z,101343.15
2017-12-19T22:40:28.344Z,101340.16
2017-12-19T22:42:55.942Z,101337.44
2017-12-19T22:45:23.602Z,101333.80
2017-12-19T22:47:51.266Z,101339.23
2017-12-19T22:50:18.874Z,101338.21
2017-12-19T22:52:46.527Z,101326.97
2017-12-19T22:55:14.130Z,101328.72
2017-12-19T22:57:41.735Z,101325.11
2017-12-19T23:00:09.395Z,101330.97
2017-12-19T23:02:37.014Z,101340.60
2017-12-19T23:05:04.733Z,101332.66
2017-12-19T23:07:32.387Z,101325.52
2017-12-19T23:09:59.991Z,101322.83
2017-12-19T23:12:27.603Z,101333.73
2017-12-19T23:14:55.270Z,101331.86
2017-12-19T23:17:22.871Z,101339.13
2017-12-19T23:19:50.475Z,101344.05
2017-12-19T23:22:18.127Z,101346.63
2017-12-19T23:24:45.722Z,101347.75
2017-12-19T23:27:13.331Z,101346.08
2017-12-19T23:29:41.040Z,101344.71
2017-12-19T23:32:08.651Z,101345.51
2017-12-19T23:34:36.254Z,101343.52
2017-12-19T23:37:03.971Z,101345.27
2017-12-19T23:39:31.604Z,101347.66
2017-12-19T23:41:59.202Z,101344.42
2017-12-19T23:44:26.920Z,101350.98
2017-12-19T23:46:54.530Z,101353.52
2017-12-19T23:49:22.131Z,101352.61
2017-12-19T23:51:49.888Z,101355.97
2017-12-19T23:54:17.495Z,101349.97
2017-12-19T23:56:45.159Z,101354.77
2017-12-19T23:59:12.815Z,101350.59
